Time;durP1;ratioP1;P1;durP2;ratioP2;P2;SDS_P1;SDS_P2;PMS_P1;PMS_P2;Temp;Humidity;BMP_temperature;BMP_pressure;BME280_temperature;BME280_humidity;BME280_pressure;Samples;Min_cycle;Max_cycle;Signal;HPM_P1;HPM_P2
2021/12/28 00:01:12;;;;;;;2.83;1.73;;;;;;;-140.79;100.00;63287.88;5040114;28;20029;-51
2021/12/28 00:03:38;;;;;;;2.75;1.75;;;;;;;-140.79;100.00;63287.88;5024678;28;20048;-52
2021/12/28 00:06:04;;;;;;;2.20;1.70;;;;;;;-140.79;100.00;63287.88;5024827;28;20116;-52
2021/12/28 00:08:29;;;;;;;2.92;1.92;;;;;;;-140.79;100.00;63287.88;5024582;28;20599;-52
2021/12/28 00:10:56;;;;;;;2.55;1.95;;;;;;;-140.79;100.00;63287.88;5024949;28;20113;-53
2021/12/28 00:13:22;;;;;;;2.28;1.73;;;;;;;-140.79;100.00;63287.88;5024682;28;20036;-52
2021/12/28 00:18:22;;;;;;;2.45;1.73;;;;;;;-140.79;100.00;63287.88;5024758;28;20575;-53
2021/12/28 00:20:49;;;;;;;2.80;1.60;;;;;;;-140.79;100.00;63287.88;5039809;28;20033;-52
2021/12/28 00:23:19;;;;;;;2.83;1.92;;;;;;;-140.79;100.00;63287.88;5024469;28;20103;-53
2021/12/28 00:25:45;;;;;;;;;;;;;;;-140.79;100.00;63287.88;5040279;28;20136;-53
2021/12/28 00:28:10;;;;;;;2.30;1.60;;;;;;;-140.79;100.00;63287.88;5023322;28;20460;-50
2021/12/28 00:30:36;;;;;;;2.78;1.90;;;;;;;-140.79;100.00;63287.88;5024301;28;20099;-53
2021/12/28 00:33:01;;;;;;;2.67;1.80;;;;;;;-140.79;100.00;63287.88;5024419;28;21007;-51
2021/12/28 00:35:32;;;;;;;2.65;1.77;;;;;;;-140.79;100.00;63287.88;5024628;28;20032;-52
2021/12/28 00:37:57;;;;;;;2.95;1.95;;;;;;;-140.79;100.00;63287.88;5024668;28;20535;-52
2021/12/28 00:40:23;;;;;;;3.50;2.22;;;;;;;-140.79;100.00;63287.88;5024696;28;20056;-52
2021/12/28 00:42:48;;;;;;;2.65;1.63;;;;;;;-140.79;100.00;63287.88;5024293;28;20037;-51
2021/12/28 00:45:14;;;;;;;2.45;1.70;;;;;;;-140.79;100.00;63287.88;5024624;28;20017;-52
2021/12/28 00:47:40;;;;;;;2.53;1.83;;;;;;;-140.79;100.00;63287.88;5039513;28;20030;-52
2021/12/28 00:50:06;;;;;;;2.55;2.10;;;;;;;-140.79;100.00;63287.88;5024607;28;20030;-52
2021/12/28 00:52:31;;;;;;;2.67;1.85;;;;;;;-140.79;100.00;63287.88;5024319;28;20033;-53
2021/12/28 00:54:57;;;;;;;2.92;1.85;;;;;;;-140.79;100.00;63287.88;5024597;28;20025;-52
2021/12/28 00:57:22;;;;;;;2.72;1.92;;;;;;;-140.79;100.00;63287.88;5024443;28;20025;-52
2021/12/28 00:59:47;;;;;;;2.85;2.00;;;;;;;-140.79;100.00;63287.88;5024377;28;20038;-52
2021/12/28 01:02:13;;;;;;;2.50;1.65;;;;;;;-140.79;100.00;63287.88;5025624;28;20025;-52
2021/12/28 01:04:38;;;;;;;3.38;1.95;;;;;;;-140.79;100.00;63287.88;5027599;28;20025;-55
2021/12/28 01:07:04;;;;;;;2.60;1.83;;;;;;;-140.79;100.00;63287.88;5028112;28;20022;-52
2021/12/28 01:09:31;;;;;;;3.75;2.00;;;;;;;-140.79;100.00;63287.88;5027747;28;20037;-52
2021/12/28 01:12:00;;;;;;;2.58;1.75;;;;;;;-140.79;100.00;63287.88;5028124;28;20029;-52
2021/12/28 01:14:26;;;;;;;2.95;2.03;;;;;;;-140.79;100.00;63287.88;5027844;28;20029;-52
2021/12/28 01:16:51;;;;;;;2.50;1.33;;;;;;;-140.79;100.00;63287.88;5027354;28;20108;-52
2021/12/28 01:19:16;;;;;;;3.13;1.88;;;;;;;-140.79;100.00;63287.88;5027894;28;20084;-53
2021/12/28 01:21:42;;;;;;;2.55;1.80;;;;;;;-140.79;100.00;63287.88;5027262;28;20476;-52
2021/12/28 01:24:07;;;;;;;2.50;1.90;;;;;;;-140.79;100.00;63287.88;5027334;28;20034;-53
2021/12/28 01:26:33;;;;;;;3.90;2.20;;;;;;;-140.79;100.00;63287.88;5027009;28;20041;-53
2021/12/28 01:28:58;;;;;;;2.90;2.03;;;;;;;-140.79;100.00;63287.88;5027106;28;20037;-52
2021/12/28 01:31:24;;;;;;;3.00;1.73;;;;;;;-140.79;100.00;63287.88;5027238;28;20030;-52
2021/12/28 01:33:49;;;;;;;3.08;1.83;;;;;;;-140.79;100.00;63287.88;5027157;28;20044;-52
2021/12/28 01:36:14;;;;;;;3.45;2.22;;;;;;;-140.79;100.00;63287.88;5027440;28;20045;-52
2021/12/28 01:38:40;;;;;;;2.55;1.80;;;;;;;-140.79;100.00;63287.88;5026701;28;20103;-53
2021/12/28 01:41:10;;;;;;;2.38;1.73;;;;;;;-140.79;100.00;63287.88;5027232;28;20099;-52
2021/12/28 01:43:38;;;;;;;3.17;2.10;;;;;;;-140.79;100.00;63287.88;5026997;28;20113;-52
2021/12/28 01:46:04;;;;;;;3.08;1.90;;;;;;;-140.79;100.00;63287.88;5026899;28;20037;-52
2021/12/28 01:48:34;;;;;;;3.30;1.80;;;;;;;-140.79;100.00;63287.88;5026593;28;20572;-51
2021/12/28 01:51:02;;;;;;;3.03;1.85;;;;;;;-140.79;100.00;63287.88;5026932;28;20096;-52
2021/12/28 01:53:27;;;;;;;2.47;1.88;;;;;;;-140.79;100.00;63287.88;5026682;28;20048;-52
2021/12/28 01:55:54;;;;;;;2.88;1.83;;;;;;;-140.79;100.00;63287.88;5026803;28;20485;-51
2021/12/28 01:58:20;;;;;;;2.78;1.92;;;;;;;-140.79;100.00;63287.88;5026636;28;20060;-52
2021/12/28 02:00:46;;;;;;;2.42;1.90;;;;;;;-140.79;100.00;63287.88;5026447;28;20025;-52
2021/12/28 02:03:14;;;;;;;2.47;1.92;;;;;;;-140.79;100.00;63287.88;5041858;28;20530;-52
2021/12/28 02:05:39;;;;;;;2.30;1.75;;;;;;;-140.79;100.00;63287.88;5026642;28;20041;-52
2021/12/28 02:08:06;;;;;;;3.10;1.85;;;;;;;-140.79;100.00;63287.88;5026449;28;20032;-52
2021/12/28 02:10:31;;;;;;;3.10;1.77;;;;;;;-140.79;100.00;63287.88;5026243;28;20033;-52
2021/12/28 02:12:57;;;;;;;2.55;1.92;;;;;;;-140.79;100.00;63287.88;5026523;28;20021;-52
2021/12/28 02:15:22;;;;;;;2.50;1.67;;;;;;;-140.79;100.00;63287.88;5026371;28;20045;-52
2021/12/28 02:17:48;;;;;;;3.08;1.92;;;;;;;-140.79;100.00;63287.88;5026341;28;20037;-52
2021/12/28 02:20:15;;;;;;;2.63;1.73;;;;;;;-140.79;100.00;63287.88;5026285;28;20124;-52
2021/12/28 02:22:41;;;;;;;2.38;1.70;;;;;;;-140.79;100.00;63287.88;5026135;28;20045;-53
2021/12/28 02:25:07;;;;;;;2.55;1.85;;;;;;;-140.79;100.00;63287.88;5026259;28;20053;-52
2021/12/28 02:27:34;;;;;;;2.78;1.90;;;;;;;-140.79;100.00;63287.88;5026060;28;20041;-53
2021/12/28 02:29:59;;;;;;;2.88;2.00;;;;;;;-140.79;100.00;63287.88;5026236;28;20026;-53
2021/12/28 02:32:26;;;;;;;2.58;1.60;;;;;;;-140.79;100.00;63287.88;5026056;28;20037;-53
2021/12/28 02:34:51;;;;;;;3.17;2.10;;;;;;;-140.79;100.00;63287.88;5025796;28;20415;-52
2021/12/28 02:37:17;;;;;;;3.78;2.25;;;;;;;-140.79;100.00;63287.88;5026028;28;20033;-53
2021/12/28 02:39:42;;;;;;;2.50;1.80;;;;;;;-140.79;100.00;63287.88;5025951;28;20500;-52
2021/12/28 02:42:08;;;;;;;2.22;1.60;;;;;;;-140.79;100.00;63287.88;5041248;28;20490;-53
2021/12/28 02:44:33;;;;;;;2.30;1.67;;;;;;;-140.79;100.00;63287.88;5025543;28;20048;-52
2021/12/28 02:46:58;;;;;;;2.72;2.03;;;;;;;-140.79;100.00;63287.88;5025972;28;20056;-52
2021/12/28 02:49:24;;;;;;;2.08;1.70;;;;;;;-140.79;100.00;63287.88;5025467;28;20108;-52
2021/12/28 02:51:49;;;;;;;3.10;2.17;;;;;;;-140.79;100.00;63287.88;5025864;28;20504;-52
2021/12/28 02:54:15;;;;;;;3.55;1.90;;;;;;;-140.79;100.00;63287.88;5025910;28;20052;-52
2021/12/28 02:56:40;;;;;;;2.63;1.73;;;;;;;-140.79;100.00;63287.88;5025377;28;20423;-52
2021/12/28 02:59:05;;;;;;;2.85;1.98;;;;;;;-140.79;100.00;63287.88;5025578;28;20036;-52
2021/12/28 03:01:31;;;;;;;2.75;1.85;;;;;;;-140.79;100.00;63287.88;5025501;28;20037;-52
2021/12/28 03:04:05;;;;;;;2.00;1.73;;;;;;;-140.79;100.00;63287.88;5025561;28;20033;-52
2021/12/28 03:06:31;;;;;;;2.38;1.80;;;;;;;-140.79;100.00;63287.88;5025172;28;20041;-52
2021/12/28 03:08:57;;;;;;;2.67;1.98;;;;;;;-140.79;100.00;63287.88;5025289;28;20037;-52
2021/12/28 03:11:23;;;;;;;2.65;1.83;;;;;;;-140.79;100.00;63287.88;5025381;28;20033;-52
2021/12/28 03:13:51;;;;;;;2.88;1.80;;;;;;;-140.79;100.00;63287.88;5025364;28;20071;-51
2021/12/28 03:16:17;;;;;;;3.15;2.15;;;;;;;-140.79;100.00;63287.88;5025450;28;20065;-52
2021/12/28 03:18:43;;;;;;;2.97;1.80;;;;;;;-140.79;100.00;63287.88;5024854;28;20033;-52
2021/12/28 03:21:09;;;;;;;3.38;1.90;;;;;;;-140.79;100.00;63287.88;5025267;28;20033;-52
2021/12/28 03:23:35;;;;;;;2.83;1.83;;;;;;;-140.79;100.00;63287.88;5025081;28;20056;-52
2021/12/28 03:26:01;;;;;;;2.67;1.90;;;;;;;-140.79;100.00;63287.88;5024495;28;20029;-52
2021/12/28 03:28:31;;;;;;;2.13;1.70;;;;;;;-140.79;100.00;63287.88;5024917;28;20028;-51
2021/12/28 03:30:57;;;;;;;2.90;2.10;;;;;;;-140.79;100.00;63287.88;5023640;28;20049;-52
2021/12/28 03:33:25;;;;;;;2.58;1.80;;;;;;;-140.79;100.00;63287.88;5024950;28;20108;-51
2021/12/28 03:35:51;;;;;;;2.33;1.85;;;;;;;-140.79;100.00;63287.88;5025143;28;20033;-51
2021/12/28 03:38:16;;;;;;;2.53;2.08;;;;;;;-140.79;100.00;63287.88;5024881;28;20026;-52
2021/12/28 03:40:42;;;;;;;3.15;2.13;;;;;;;-140.79;100.00;63287.88;5024850;28;20512;-52
2021/12/28 03:43:07;;;;;;;2.75;1.95;;;;;;;-140.79;100.00;63287.88;5024897;28;20072;-53
2021/12/28 03:45:33;;;;;;;3.17;2.30;;;;;;;-140.79;100.00;63287.88;5024685;28;20044;-52
2021/12/28 03:47:58;;;;;;;2.40;1.83;;;;;;;-140.79;100.00;63287.88;5024961;28;20108;-53
2021/12/28 03:50:25;;;;;;;3.22;2.33;;;;;;;-140.79;100.00;63287.88;5024901;28;20064;-52
2021/12/28 03:52:54;;;;;;;2.80;1.85;;;;;;;-140.79;100.00;63287.88;5024746;28;20029;-51
2021/12/28 03:55:21;;;;;;;3.58;2.08;;;;;;;-140.79;100.00;63287.88;5024979;28;20056;-52
2021/12/28 03:57:47;;;;;;;2.78;1.63;;;;;;;-140.79;100.00;63287.88;5025070;28;20029;-52
2021/12/28 04:00:13;;;;;;;3.05;2.22;;;;;;;-140.79;100.00;63287.88;5024825;28;20475;-53
2021/12/28 04:02:39;;;;;;;3.00;1.95;;;;;;;-140.79;100.00;63287.88;5024200;28;20112;-52
2021/12/28 04:05:05;;;;;;;3.10;2.08;;;;;;;-140.79;100.00;63287.88;5024845;28;20066;-52
2021/12/28 04:07:30;;;;;;;2.80;1.95;;;;;;;-140.79;100.00;63287.88;5024739;28;20522;-52
2021/12/28 04:09:59;;;;;;;2.72;1.83;;;;;;;-140.79;100.00;63287.88;5024239;28;20060;-53
2021/12/28 04:12:25;;;;;;;2.58;1.73;;;;;;;-140.79;100.00;63287.88;5024592;28;20065;-53
2021/12/28 04:14:51;;;;;;;2.58;2.03;;;;;;;-140.79;100.00;63287.88;5022934;28;20075;-51
2021/12/28 04:17:16;;;;;;;3.10;1.88;;;;;;;-140.79;100.00;63287.88;5024733;28;20030;-52
2021/12/28 04:19:42;;;;;;;3.08;2.13;;;;;;;-140.79;100.00;63287.88;5024573;28;20029;-52
2021/12/28 04:22:08;;;;;;;2.58;1.90;;;;;;;-140.79;100.00;63287.88;5024707;28;20046;-51
2021/12/28 04:24:33;;;;;;;2.63;1.90;;;;;;;-140.79;100.00;63287.88;5024287;28;20030;-52
2021/12/28 04:26:59;;;;;;;2.28;1.90;;;;;;;-140.79;100.00;63287.88;5024661;28;20411;-52
2021/12/28 04:29:24;;;;;;;2.78;1.85;;;;;;;-140.79;100.00;63287.88;5023139;28;20014;-52
2021/12/28 04:31:50;;;;;;;2.80;1.88;;;;;;;-140.79;100.00;63287.88;5024634;28;20162;-52
2021/12/28 04:34:15;;;;;;;3.38;2.15;;;;;;;-140.79;100.00;63287.88;5024518;28;20069;-52
2021/12/28 04:36:41;;;;;;;2.97;2.00;;;;;;;-140.79;100.00;63287.88;5024724;28;20060;-52
2021/12/28 04:39:06;;;;;;;2.60;1.95;;;;;;;-140.79;100.00;63287.88;5028182;28;20415;-52
2021/12/28 04:41:32;;;;;;;3.33;2.15;;;;;;;-140.79;100.00;63287.88;5028406;28;20464;-52
2021/12/28 04:44:00;;;;;;;2.55;1.88;;;;;;;-140.79;100.00;63287.88;5028257;28;20029;-52
2021/12/28 04:46:25;;;;;;;3.00;2.28;;;;;;;-140.79;100.00;63287.88;5028123;28;20041;-52
2021/12/28 04:48:51;;;;;;;3.08;2.17;;;;;;;-140.79;100.00;63287.88;5043184;28;20492;-52
2021/12/28 04:51:16;;;;;;;3.05;2.00;;;;;;;-140.79;100.00;63287.88;5028014;28;20033;-52
2021/12/28 04:53:42;;;;;;;2.75;2.10;;;;;;;-140.79;100.00;63287.88;5028187;28;20809;-52
2021/12/28 04:56:07;;;;;;;2.60;1.90;;;;;;;-140.79;100.00;63287.88;5027916;28;20661;-52
2021/12/28 04:58:33;;;;;;;2.40;1.85;;;;;;;-140.79;100.00;63287.88;5027963;28;20713;-52
2021/12/28 05:00:58;;;;;;;3.22;2.05;;;;;;;-140.79;100.00;63287.88;5027655;28;20574;-52
2021/12/28 05:03:23;;;;;;;3.35;1.95;;;;;;;-140.79;100.00;63287.88;5027768;28;20029;-52
2021/12/28 05:05:50;;;;;;;3.00;2.00;;;;;;;-140.79;100.00;63287.88;5027710;28;20037;-52
2021/12/28 05:08:16;;;;;;;2.63;1.88;;;;;;;-140.79;100.00;63287.88;5026268;28;20041;-53
2021/12/28 05:10:42;;;;;;;2.92;1.98;;;;;;;-140.79;100.00;63287.88;5027422;28;20037;-52
2021/12/28 05:13:07;;;;;;;2.47;2.00;;;;;;;-140.79;100.00;63287.88;5027808;28;20053;-53
2021/12/28 05:15:33;;;;;;;2.63;2.00;;;;;;;-140.79;100.00;63287.88;5027759;28;20021;-52
2021/12/28 05:17:58;;;;;;;3.20;2.00;;;;;;;-140.79;100.00;63287.88;5027694;28;20061;-52
2021/12/28 05:20:24;;;;;;;2.55;2.05;;;;;;;-140.79;100.00;63287.88;5042827;28;20454;-53
2021/12/28 05:22:49;;;;;;;2.60;1.75;;;;;;;-140.79;100.00;63287.88;5027155;28;20132;-52
2021/12/28 05:25:15;;;;;;;2.30;1.80;;;;;;;-140.79;100.00;63287.88;5027260;28;20033;-52
2021/12/28 05:27:41;;;;;;;3.20;1.98;;;;;;;-140.79;100.00;63287.88;5027420;28;20594;-52
2021/12/28 05:30:07;;;;;;;3.08;2.03;;;;;;;-140.79;100.00;63287.88;5027415;28;20033;-51
2021/12/28 05:32:33;;;;;;;2.80;2.17;;;;;;;-140.79;100.00;63287.88;5027343;28;20095;-51
2021/12/28 05:34:58;;;;;;;2.83;1.80;;;;;;;-140.79;100.00;63287.88;5027090;28;20503;-51
2021/12/28 05:37:24;;;;;;;2.90;2.03;;;;;;;-140.79;100.00;63287.88;5027294;28;20079;-51
2021/12/28 05:39:49;;;;;;;3.40;2.30;;;;;;;-140.79;100.00;63287.88;5027196;28;20034;-52
2021/12/28 05:42:15;;;;;;;2.80;1.95;;;;;;;-140.79;100.00;63287.88;5042387;28;20025;-51
2021/12/28 05:44:40;;;;;;;2.80;2.05;;;;;;;-140.79;100.00;63287.88;5026659;28;20034;-51
2021/12/28 05:47:06;;;;;;;2.80;1.90;;;;;;;-140.79;100.00;63287.88;5027084;28;20030;-52
2021/12/28 05:49:31;;;;;;;2.70;1.88;;;;;;;-140.79;100.00;63287.88;5026435;28;20083;-52
2021/12/28 05:51:57;;;;;;;3.22;2.28;;;;;;;-140.79;100.00;63287.88;5026839;28;20517;-52
2021/12/28 05:54:22;;;;;;;3.20;2.03;;;;;;;-140.79;100.00;63287.88;5026984;28;20029;-51
2021/12/28 05:56:48;;;;;;;2.75;2.20;;;;;;;-140.79;100.00;63287.88;5026410;28;20446;-52
2021/12/28 05:59:13;;;;;;;2.85;1.98;;;;;;;-140.79;100.00;63287.88;5041968;28;20033;-51
2021/12/28 06:01:38;;;;;;;2.78;1.95;;;;;;;-140.79;100.00;63287.88;5025363;28;20549;-52
2021/12/28 06:04:04;;;;;;;2.88;1.73;;;;;;;-140.79;100.00;63287.88;5026704;28;20032;-52
2021/12/28 06:06:30;;;;;;;2.90;1.83;;;;;;;-140.79;100.00;63287.88;5026602;28;20034;-50
2021/12/28 06:08:55;;;;;;;2.92;1.98;;;;;;;-140.79;100.00;63287.88;5026473;28;20061;-54
2021/12/28 06:11:21;;;;;;;3.38;1.90;;;;;;;-140.79;100.00;63287.88;5026727;28;20108;-55
2021/12/28 06:13:46;;;;;;;2.78;2.05;;;;;;;-140.79;100.00;63287.88;5026530;28;20029;-55
2021/12/28 06:16:12;;;;;;;3.13;2.00;;;;;;;-140.79;100.00;63287.88;5026756;28;20036;-56
2021/12/28 06:18:37;;;;;;;5.82;5.07;;;;;;;-140.79;100.00;63287.88;5012821;28;20034;-53
2021/12/28 06:21:03;;;;;;;8.63;5.60;;;;;;;-140.79;100.00;63287.88;5025585;28;20033;-52
2021/12/28 06:23:28;;;;;;;6.65;4.28;;;;;;;-140.79;100.00;63287.88;5022748;28;20049;-52
2021/12/28 06:25:54;;;;;;;6.68;3.67;;;;;;;-140.79;100.00;63287.88;5016829;28;20045;-52
2021/12/28 06:28:19;;;;;;;4.95;3.60;;;;;;;-140.79;100.00;63287.88;5023436;28;20026;-51
2021/12/28 06:30:44;;;;;;;4.78;2.95;;;;;;;-140.79;100.00;63287.88;5025430;28;20026;-54
2021/12/28 06:33:10;;;;;;;5.88;3.22;;;;;;;-140.79;100.00;63287.88;5025787;28;20065;-52
2021/12/28 06:35:35;;;;;;;5.47;2.90;;;;;;;-140.79;100.00;63287.88;5025735;28;20103;-53
2021/12/28 06:38:01;;;;;;;4.68;3.13;;;;;;;-140.79;100.00;63287.88;5024983;28;20038;-52
2021/12/28 06:40:26;;;;;;;4.78;2.75;;;;;;;-140.79;100.00;63287.88;5025254;28;20431;-51
2021/12/28 06:42:52;;;;;;;4.63;2.70;;;;;;;-140.79;100.00;63287.88;5024286;28;20038;-52
2021/12/28 06:45:17;;;;;;;3.53;2.60;;;;;;;-140.79;100.00;63287.88;5024322;28;20096;-52
2021/12/28 06:47:43;;;;;;;4.57;2.60;;;;;;;-140.79;100.00;63287.88;5023688;28;20049;-51
2021/12/28 06:50:09;;;;;;;3.70;2.30;;;;;;;-140.79;100.00;63287.88;5024837;28;20439;-50
2021/12/28 06:52:34;;;;;;;4.55;2.85;;;;;;;-140.79;100.00;63287.88;5024531;28;20598;-51
2021/12/28 06:55:00;;;;;;;4.28;2.35;;;;;;;-140.79;100.00;63287.88;5024689;28;20029;-51
2021/12/28 06:57:26;;;;;;;4.10;2.60;;;;;;;-140.79;100.00;63287.88;5024223;28;20021;-51
2021/12/28 06:59:51;;;;;;;4.65;2.70;;;;;;;-140.79;100.00;63287.88;5023293;28;20045;-51
2021/12/28 07:02:17;;;;;;;4.90;3.13;;;;;;;-140.79;100.00;63287.88;5024341;28;20036;-52
2021/12/28 07:04:42;;;;;;;9.75;6.38;;;;;;;-140.79;100.00;63287.88;5024071;28;20479;-53
2021/12/28 07:07:08;;;;;;;7.25;4.72;;;;;;;-140.79;100.00;63287.88;5025179;28;20045;-51
2021/12/28 07:09:33;;;;;;;6.70;3.72;;;;;;;-140.79;100.00;63287.88;5024554;28;20415;-50
2021/12/28 07:11:59;;;;;;;3.97;2.67;;;;;;;-140.79;100.00;63287.88;5024833;28;20052;-51
2021/12/28 07:14:24;;;;;;;3.92;2.72;;;;;;;-140.79;100.00;63287.88;5021819;28;20037;-52
2021/12/28 07:16:49;;;;;;;4.28;3.00;;;;;;;-140.79;100.00;63287.88;5022651;28;20443;-51
2021/12/28 07:19:15;;;;;;;3.33;2.22;;;;;;;-140.79;100.00;63287.88;5024253;28;20419;-51
2021/12/28 07:21:41;;;;;;;3.80;2.80;;;;;;;-140.79;100.00;63287.88;5024180;28;20026;-52
2021/12/28 07:24:07;;;;;;;3.17;2.28;;;;;;;-140.79;100.00;63287.88;5023435;28;20473;-52
2021/12/28 07:26:33;;;;;;;5.32;3.00;;;;;;;-140.79;100.00;63287.88;5024333;28;20025;-51
2021/12/28 07:28:58;;;;;;;4.45;2.60;;;;;;;-140.79;100.00;63287.88;5024055;28;20087;-52
2021/12/28 07:31:23;;;;;;;3.22;2.50;;;;;;;-140.79;100.00;63287.88;5024096;28;20021;-52
2021/12/28 07:33:49;;;;;;;3.05;2.58;;;;;;;-140.79;100.00;63287.88;5024048;28;20033;-51
2021/12/28 07:36:15;;;;;;;3.08;2.55;;;;;;;-140.79;100.00;63287.88;5024244;28;20052;-52
2021/12/28 07:38:41;;;;;;;3.40;2.50;;;;;;;-140.79;100.00;63287.88;5023705;28;20037;-52
2021/12/28 07:41:06;;;;;;;2.88;2.58;;;;;;;-140.79;100.00;63287.88;5024232;28;20549;-52
2021/12/28 07:43:31;;;;;;;3.88;2.70;;;;;;;-140.79;100.00;63287.88;5024209;28;20033;-52
2021/12/28 07:45:57;;;;;;;3.92;2.70;;;;;;;-140.79;100.00;63287.88;5024125;28;20060;-52
2021/12/28 07:48:22;;;;;;;4.28;3.00;;;;;;;-140.79;100.00;63287.88;5023921;28;20767;-52
2021/12/28 07:50:48;;;;;;;3.55;2.60;;;;;;;-140.79;100.00;63287.88;5023756;28;20480;-51
2021/12/28 07:53:13;;;;;;;4.32;2.60;;;;;;;-140.79;100.00;63287.88;5023529;28;20018;-51
2021/12/28 07:55:39;;;;;;;3.55;2.70;;;;;;;-140.79;100.00;63287.88;5023886;28;20017;-52
2021/12/28 07:58:04;;;;;;;3.63;2.53;;;;;;;-140.79;100.00;63287.88;5023746;28;20048;-51
2021/12/28 08:00:30;;;;;;;3.83;2.63;;;;;;;-140.79;100.00;63287.88;5023716;28;20033;-51
2021/12/28 08:02:55;;;;;;;3.92;3.03;;;;;;;-140.79;100.00;63287.88;5023509;28;20128;-51
2021/12/28 08:05:20;;;;;;;2.83;2.10;;;;;;;-140.79;100.00;63287.88;5009456;28;20519;-52
2021/12/28 08:07:47;;;;;;;3.90;2.97;;;;;;;-140.79;100.00;63287.88;5010681;28;20040;-51
2021/12/28 08:10:14;;;;;;;3.50;2.45;;;;;;;-140.79;100.00;63287.88;4989812;28;20037;-51
2021/12/28 08:12:40;;;;;;;3.47;2.42;;;;;;;-140.79;100.00;63287.88;5014872;28;20416;-51
2021/12/28 08:15:06;;;;;;;2.95;2.30;;;;;;;-140.79;100.00;63287.88;5007490;28;20034;-51
2021/12/28 08:17:31;;;;;;;3.67;2.58;;;;;;;-140.79;100.00;63287.88;5007128;28;20041;-51
2021/12/28 08:19:57;;;;;;;3.72;2.65;;;;;;;-140.79;100.00;63287.88;5011304;28;20029;-51
2021/12/28 08:22:22;;;;;;;3.58;2.47;;;;;;;-140.79;100.00;63287.88;5026916;28;20040;-51
2021/12/28 08:24:48;;;;;;;4.82;2.70;;;;;;;-140.79;100.00;63287.88;5021996;28;20027;-51
2021/12/28 08:27:13;;;;;;;3.38;2.38;;;;;;;-140.79;100.00;63287.88;5008441;28;20092;-51
2021/12/28 08:29:38;;;;;;;3.63;2.63;;;;;;;-140.79;100.00;63287.88;5009066;28;20026;-52
2021/12/28 08:32:04;;;;;;;3.80;2.42;;;;;;;-140.79;100.00;63287.88;5013703;28;20037;-51
2021/12/28 08:34:30;;;;;;;4.72;3.00;;;;;;;-140.79;100.00;63287.88;5023567;28;20034;-52
2021/12/28 08:36:55;;;;;;;4.20;2.53;;;;;;;-140.79;100.00;63287.88;5020509;28;20021;-52
2021/12/28 08:39:20;;;;;;;3.28;2.47;;;;;;;-140.79;100.00;63287.88;5027466;28;20483;-52
2021/12/28 08:41:46;;;;;;;4.10;2.55;;;;;;;-140.79;100.00;63287.88;5015611;28;20041;-52
2021/12/28 08:44:11;;;;;;;3.42;2.60;;;;;;;-140.79;100.00;63287.88;5018963;28;20673;-52
2021/12/28 08:46:39;;;;;;;4.63;2.65;;;;;;;-140.79;100.00;63287.88;5027161;28;20095;-52
2021/12/28 08:49:04;;;;;;;3.28;2.58;;;;;;;-140.79;100.00;63287.88;5027083;28;20029;-52
2021/12/28 08:51:30;;;;;;;3.25;2.72;;;;;;;-140.79;100.00;63287.88;5026777;28;20036;-54
2021/12/28 08:53:57;;;;;;;4.05;2.67;;;;;;;-140.79;100.00;63287.88;5026876;28;20041;-52
2021/12/28 08:56:22;;;;;;;2.92;2.33;;;;;;;-140.79;100.00;63287.88;5027105;28;20491;-52
2021/12/28 08:58:48;;;;;;;4.55;2.72;;;;;;;-140.79;100.00;63287.88;5027144;28;20025;-52
2021/12/28 09:01:13;;;;;;;3.70;2.58;;;;;;;-140.79;100.00;63287.88;5026741;28;20753;-53
2021/12/28 09:03:39;;;;;;;4.18;2.78;;;;;;;-140.79;100.00;63287.88;5025151;28;20030;-52
2021/12/28 09:06:05;;;;;;;5.53;2.80;;;;;;;-140.79;100.00;63287.88;5027169;28;20029;-53
2021/12/28 09:08:31;;;;;;;4.65;2.83;;;;;;;-140.79;100.00;63287.88;5027090;28;20060;-54
2021/12/28 09:10:57;;;;;;;3.35;2.53;;;;;;;-140.79;100.00;63287.88;5025661;28;20034;-53
2021/12/28 09:13:22;;;;;;;4.55;2.78;;;;;;;-140.79;100.00;63287.88;5026809;28;20029;-53
2021/12/28 09:15:47;;;;;;;3.42;2.60;;;;;;;-140.79;100.00;63287.88;5026666;28;20021;-53
2021/12/28 09:18:13;;;;;;;7.07;4.65;;;;;;;-140.79;100.00;63287.88;5026632;28;20030;-52
2021/12/28 09:20:38;;;;;;;5.03;3.15;;;;;;;-140.79;100.00;63287.88;5025438;28;20564;-55
2021/12/28 09:23:04;;;;;;;3.38;2.78;;;;;;;-140.79;100.00;63287.88;5023597;28;20056;-54
2021/12/28 09:25:30;;;;;;;4.32;2.63;;;;;;;-140.79;100.00;63287.88;5025803;28;20030;-52
2021/12/28 09:27:56;;;;;;;5.50;2.90;;;;;;;-140.79;100.00;63287.88;5026727;28;20045;-53
2021/12/28 09:30:21;;;;;;;5.80;2.70;;;;;;;-140.79;100.00;63287.88;5026887;28;20033;-53
2021/12/28 09:32:47;;;;;;;3.95;2.70;;;;;;;-140.79;100.00;63287.88;5016248;28;20040;-52
2021/12/28 09:35:12;;;;;;;5.45;2.60;;;;;;;-140.79;100.00;63287.88;5008365;28;20030;-52
2021/12/28 09:37:38;;;;;;;3.42;2.63;;;;;;;-140.79;100.00;63287.88;5009932;28;20022;-53
2021/12/28 09:40:06;;;;;;;4.22;2.85;;;;;;;-140.79;100.00;63287.88;5041405;28;20100;-52
2021/12/28 09:42:31;;;;;;;5.10;2.80;;;;;;;-140.79;100.00;63287.88;5026024;28;20030;-53
2021/12/28 09:44:57;;;;;;;3.65;2.58;;;;;;;-140.79;100.00;63287.88;5025885;28;20511;-56
2021/12/28 09:47:22;;;;;;;4.43;2.97;;;;;;;-140.79;100.00;63287.88;5024462;28;20033;-53
2021/12/28 09:49:48;;;;;;;4.03;2.80;;;;;;;-140.79;100.00;63287.88;5024825;28;20018;-53
2021/12/28 09:52:14;;;;;;;4.55;3.10;;;;;;;-140.79;100.00;63287.88;5026198;28;20116;-52
2021/12/28 09:54:39;;;;;;;4.38;2.90;;;;;;;-140.79;100.00;63287.88;5026007;28;20033;-54
2021/12/28 09:57:05;;;;;;;4.55;2.70;;;;;;;-140.79;100.00;63287.88;5026227;28;20029;-53
2021/12/28 09:59:31;;;;;;;4.10;3.08;;;;;;;-140.79;100.00;63287.88;5025096;28;20060;-53
2021/12/28 10:01:58;;;;;;;4.07;2.55;;;;;;;-140.79;100.00;63287.88;5024875;28;20031;-52
2021/12/28 10:04:24;;;;;;;4.32;3.00;;;;;;;-140.79;100.00;63287.88;5025736;28;20052;-51
2021/12/28 10:06:49;;;;;;;3.67;2.75;;;;;;;-140.79;100.00;63287.88;5040714;28;20797;-53
2021/12/28 10:09:17;;;;;;;3.80;2.88;;;;;;;-140.79;100.00;63287.88;5022848;28;20037;-52
2021/12/28 10:11:48;;;;;;;3.90;3.00;;;;;;;-140.79;100.00;63287.88;5025556;28;20024;-52
2021/12/28 10:14:18;;;;;;;4.32;3.00;;;;;;;-140.79;100.00;63287.88;5025987;28;20034;-52
2021/12/28 10:16:52;;;;;;;4.93;3.15;;;;;;;-140.79;100.00;63287.88;5025857;28;20040;-51
2021/12/28 10:19:32;;;;;;;4.13;2.63;;;;;;;-140.79;100.00;63287.88;5025465;28;20079;-54
2021/12/28 10:21:58;;;;;;;4.28;2.90;;;;;;;-140.79;100.00;63287.88;5025755;28;20025;-51
2021/12/28 10:24:34;;;;;;;3.67;2.83;;;;;;;-140.79;100.00;63287.88;5025308;28;20774;-54
2021/12/28 10:27:10;;;;;;;3.92;2.95;;;;;;;-140.79;100.00;63287.88;5024748;28;20036;-53
2021/12/28 10:29:36;;;;;;;3.38;2.90;;;;;;;-140.79;100.00;63287.88;5024754;28;20475;-53
2021/12/28 10:32:17;;;;;;;3.60;2.60;;;;;;;-140.79;100.00;63287.88;5019071;28;20053;-54
2021/12/28 10:34:47;;;;;;;4.40;3.08;;;;;;;-140.79;100.00;63287.88;5022833;28;20069;-53
2021/12/28 10:37:14;;;;;;;4.65;3.10;;;;;;;-140.79;100.00;63287.88;5024798;28;20034;-52
2021/12/28 10:39:46;;;;;;;5.43;3.08;;;;;;;-140.79;100.00;63287.88;5025055;28;20030;-54
2021/12/28 10:42:57;;;;;;;4.50;3.05;;;;;;;-140.79;100.00;63287.88;5025131;28;20017;-53
2021/12/28 10:45:25;;;;;;;5.43;3.10;;;;;;;-140.79;100.00;63287.88;5025016;28;20025;-52
2021/12/28 10:47:51;;;;;;;4.70;3.08;;;;;;;-140.79;100.00;63287.88;5024654;28;20503;-53
2021/12/28 10:50:31;;;;;;;10.80;5.60;;;;;;;-140.79;100.00;63287.88;5025302;28;20492;-52
2021/12/28 10:53:07;;;;;;;6.43;3.33;;;;;;;-140.79;100.00;63287.88;5025224;28;20025;-53
2021/12/28 10:55:33;;;;;;;5.10;3.10;;;;;;;-140.79;100.00;63287.88;5024744;28;20095;-53
2021/12/28 10:57:58;;;;;;;3.85;2.83;;;;;;;-140.79;100.00;63287.88;5025183;28;20026;-54
2021/12/28 11:00:31;;;;;;;4.13;3.17;;;;;;;-140.79;100.00;63287.88;5025226;28;20017;-54
2021/12/28 11:03:26;;;;;;;5.30;3.08;;;;;;;-140.79;100.00;63287.88;5025020;28;20508;-54
2021/12/28 11:05:52;;;;;;;4.32;3.10;;;;;;;-140.79;100.00;63287.88;5039339;28;20099;-52
2021/12/28 11:08:18;;;;;;;4.38;2.95;;;;;;;-140.79;100.00;63287.88;5024885;28;20033;-53